Quebec, Canada
Current Conditions -  °F | °C
As of 3:00 PM on Thursday 27 Nov 2014 (Local Time) from CYQB Reporting Station
Few Clouds Few Clouds  
Wind Chill: 21°   Ceiling: Unl
Heat Index: 30°   Visibility: 30mi
Dew Point: 16°   Wind: 10mph
Humidity: 55%   Direction: 220°SW
Pressure: 29.98"   Gusts: NA
Location:  46.81°N, 71.22°W
Report Text: CYQB 272000Z 22009KT 30SM FEW040 FEW240 M01/M09 A2998 RMK SC1CI1 SC TR SLP156
Loading
Personal Weather Stations






























Interactive Weather Map New forecast layout! Learn more

10-Day Weather Forecast

Advertisements
Track Severe Weather on mobile